Time;durP1;ratioP1;P1;durP2;ratioP2;P2;SDS_P1;SDS_P2;PMS_P1;PMS_P2;Temp;Humidity;BMP_temperature;BMP_pressure;BME280_temperature;BME280_humidity;BME280_pressure;Samples;Min_cycle;Max_cycle;Signal;HPM_P1;HPM_P2
2023/03/01 00:02:41;;;;;;;2.03;1.00;;;;;;;;;;6186959;28;20307;-80
2023/03/01 00:05:47;;;;;;;2.43;1.00;;;;;;;;;;6187137;28;20293;-80
2023/03/01 00:08:52;;;;;;;2.50;1.03;;;;;;;;;;6186434;28;20297;-79
2023/03/01 00:11:58;;;;;;;1.87;1.00;;;;;;;;;;6170156;28;20302;-79
2023/03/01 00:15:04;;;;;;;4.13;1.37;;;;;;;;;;6186425;28;20518;-79
2023/03/01 00:18:16;;;;;;;4.43;1.13;;;;;;;;;;6186185;28;20291;-79
2023/03/01 00:21:22;;;;;;;3.00;1.27;;;;;;;;;;6187038;28;20303;-79
2023/03/01 00:24:28;;;;;;;4.93;1.17;;;;;;;;;;6169237;28;20302;-79
2023/03/01 00:27:33;;;;;;;2.07;1.03;;;;;;;;;;6186493;28;20317;-78
2023/03/01 00:30:38;;;;;;;4.00;1.07;;;;;;;;;;6184631;28;20292;-79
2023/03/01 00:33:45;;;;;;;8.90;1.47;;;;;;;;;;6168927;28;20293;-79
2023/03/01 00:36:50;;;;;;;2.90;1.00;;;;;;;;;;6186542;28;20297;-79
2023/03/01 00:39:56;;;;;;;1.03;1.00;;;;;;;;;;6185832;28;20300;-79
2023/03/01 00:43:00;;;;;;;2.60;0.97;;;;;;;;;;6185178;28;20486;-79
2023/03/01 00:46:07;;;;;;;2.00;1.00;;;;;;;;;;6168628;28;20309;-79
2023/03/01 00:49:15;;;;;;;1.57;1.10;;;;;;;;;;6185637;28;20305;-79
2023/03/01 00:52:20;;;;;;;4.87;1.10;;;;;;;;;;6188039;28;20289;-79
2023/03/01 00:55:25;;;;;;;0.93;0.93;;;;;;;;;;6168201;28;20317;-79
2023/03/01 00:58:31;;;;;;;2.03;1.10;;;;;;;;;;6167941;28;20299;-78
2023/03/01 01:01:36;;;;;;;3.93;1.17;;;;;;;;;;6187796;28;20475;-78
2023/03/01 01:04:43;;;;;;;3.77;1.27;;;;;;;;;;6171730;28;20484;-79
2023/03/01 01:07:48;;;;;;;6.27;1.23;;;;;;;;;;6171889;28;20584;-79
2023/03/01 01:10:54;;;;;;;2.07;1.00;;;;;;;;;;6155335;28;20306;-79
2023/03/01 01:14:00;;;;;;;5.73;1.20;;;;;;;;;;6186781;28;20305;-79
2023/03/01 01:17:06;;;;;;;4.90;1.50;;;;;;;;;;6170883;28;20288;-78
2023/03/01 01:20:15;;;;;;;2.83;1.23;;;;;;;;;;6184794;28;20490;-79
2023/03/01 01:23:21;;;;;;;2.53;1.10;;;;;;;;;;6167280;28;20302;-78
2023/03/01 01:26:28;;;;;;;2.23;0.90;;;;;;;;;;6168218;28;20325;-79
2023/03/01 01:29:33;;;;;;;2.00;1.10;;;;;;;;;;6184731;28;20293;-78
2023/03/01 01:32:38;;;;;;;2.67;1.10;;;;;;;;;;6167859;28;20592;-78
2023/03/01 01:35:47;;;;;;;2.53;1.43;;;;;;;;;;6184450;28;20296;-80
2023/03/01 01:38:52;;;;;;;1.60;1.10;;;;;;;;;;6183403;28;20564;-79
2023/03/01 01:41:57;;;;;;;3.67;1.10;;;;;;;;;;6167732;28;20301;-78
2023/03/01 01:45:29;;;;;;;2.73;1.13;;;;;;;;;;6167087;28;20307;-79
2023/03/01 01:48:41;;;;;;;3.27;0.97;;;;;;;;;;6183008;28;20293;-78
2023/03/01 01:51:49;;;;;;;2.03;1.00;;;;;;;;;;6167620;28;20296;-79
2023/03/01 01:55:01;;;;;;;1.03;1.00;;;;;;;;;;6198488;28;20305;-79
2023/03/01 01:58:08;;;;;;;2.77;1.00;;;;;;;;;;6198921;28;20300;-79
2023/03/01 02:01:13;;;;;;;3.30;1.40;;;;;;;;;;6184519;28;20329;-78
2023/03/01 02:04:19;;;;;;;3.03;1.10;;;;;;;;;;6183763;28;20306;-78
2023/03/01 02:07:26;;;;;;;1.30;1.30;;;;;;;;;;6198342;28;20555;-79
2023/03/01 02:10:34;;;;;;;1.77;1.00;;;;;;;;;;6169988;28;20300;-78
2023/03/01 02:13:40;;;;;;;2.20;1.10;;;;;;;;;;6188192;28;20301;-78
2023/03/01 02:16:45;;;;;;;2.73;1.00;;;;;;;;;;6189044;28;20563;-78
2023/03/01 02:20:06;;;;;;;1.70;1.00;;;;;;;;;;6171138;28;20285;-79
2023/03/01 02:23:13;;;;;;;2.30;0.90;;;;;;;;;;6188508;28;22003;-78
2023/03/01 02:26:25;;;;;;;0.90;0.90;;;;;;;;;;6189314;28;20296;-78
2023/03/01 02:29:32;;;;;;;3.07;1.23;;;;;;;;;;6188183;28;20303;-79
2023/03/01 02:32:41;;;;;;;1.97;0.90;;;;;;;;;;6172184;28;20432;-79
2023/03/01 02:35:46;;;;;;;1.27;1.10;;;;;;;;;;6187077;28;20294;-78
2023/03/01 02:38:53;;;;;;;1.03;1.00;;;;;;;;;;6187925;28;20474;-78
2023/03/01 02:42:00;;;;;;;3.40;0.93;;;;;;;;;;6188353;28;20291;-79
2023/03/01 02:45:08;;;;;;;2.83;0.97;;;;;;;;;;6187243;28;20309;-79
2023/03/01 02:48:14;;;;;;;3.33;1.23;;;;;;;;;;6188305;28;20293;-78
2023/03/01 02:51:44;;;;;;;5.97;1.20;;;;;;;;;;6171465;28;20309;-79
2023/03/01 02:54:53;;;;;;;0.97;0.93;;;;;;;;;;6170840;28;20306;-78
2023/03/01 02:58:01;;;;;;;1.50;1.40;;;;;;;;;;6170429;28;20297;-80
2023/03/01 03:01:10;;;;;;;2.03;1.00;;;;;;;;;;6170697;28;20307;-78
2023/03/01 03:04:17;;;;;;;0.73;0.73;;;;;;;;;;6186416;28;20596;-78
2023/03/01 03:07:25;;;;;;;4.57;1.20;;;;;;;;;;6153099;28;20277;-78
2023/03/01 03:10:31;;;;;;;0.90;0.90;;;;;;;;;;6187492;28;20303;-78
2023/03/01 03:13:37;;;;;;;5.63;1.43;;;;;;;;;;6170126;28;20305;-79
2023/03/01 03:16:45;;;;;;;2.40;1.03;;;;;;;;;;6188120;28;20498;-79
2023/03/01 03:19:50;;;;;;;2.23;1.10;;;;;;;;;;6169831;28;20299;-79
2023/03/01 03:22:58;;;;;;;1.37;1.20;;;;;;;;;;6169866;28;20330;-79
2023/03/01 03:26:03;;;;;;;1.20;1.10;;;;;;;;;;6171066;28;20349;-79
2023/03/01 03:29:09;;;;;;;1.60;1.00;;;;;;;;;;6187167;28;20307;-79
2023/03/01 03:32:16;;;;;;;1.63;1.10;;;;;;;;;;6170416;28;20299;-79
2023/03/01 03:35:24;;;;;;;1.40;1.30;;;;;;;;;;6201949;28;20300;-79
2023/03/01 03:38:29;;;;;;;0.80;0.80;;;;;;;;;;6187074;28;20290;-79
2023/03/01 03:41:36;;;;;;;1.10;1.00;;;;;;;;;;6187374;28;20289;-79
2023/03/01 03:44:41;;;;;;;1.77;1.00;;;;;;;;;;6187096;28;20289;-79
2023/03/01 03:47:48;;;;;;;1.13;1.13;;;;;;;;;;6188334;28;20293;-78
2023/03/01 03:50:55;;;;;;;2.27;0.90;;;;;;;;;;6187752;28;20307;-78
2023/03/01 03:54:00;;;;;;;1.07;0.87;;;;;;;;;;6187174;28;20301;-79
2023/03/01 03:57:05;;;;;;;1.60;0.97;;;;;;;;;;6187858;28;20301;-80
2023/03/01 04:00:14;;;;;;;1.90;1.00;;;;;;;;;;6186446;28;20292;-79
2023/03/01 04:03:21;;;;;;;1.20;1.20;;;;;;;;;;6175781;28;20306;-79
2023/03/01 04:06:26;;;;;;;2.47;1.10;;;;;;;;;;6185808;28;20458;-80
2023/03/01 04:09:33;;;;;;;2.07;1.13;;;;;;;;;;6186533;28;20289;-79
2023/03/01 04:12:38;;;;;;;1.10;0.90;;;;;;;;;;6186429;28;20491;-78
2023/03/01 04:15:43;;;;;;;1.00;1.00;;;;;;;;;;6169608;28;20301;-78
2023/03/01 04:18:50;;;;;;;1.20;1.10;;;;;;;;;;6185921;28;20301;-79
2023/03/01 04:21:55;;;;;;;1.33;1.00;;;;;;;;;;6187141;28;20293;-78
2023/03/01 04:25:01;;;;;;;0.80;0.80;;;;;;;;;;6186283;28;20300;-79
2023/03/01 04:28:07;;;;;;;2.03;1.00;;;;;;;;;;6185971;28;20294;-78
2023/03/01 04:31:15;;;;;;;1.00;1.00;;;;;;;;;;6185678;28;20335;-79
2023/03/01 04:34:22;;;;;;;1.17;1.07;;;;;;;;;;6185856;28;20615;-79
2023/03/01 04:37:27;;;;;;;2.77;1.00;;;;;;;;;;6185507;28;20278;-79
2023/03/01 04:40:36;;;;;;;1.13;1.00;;;;;;;;;;6185543;28;20293;-79
2023/03/01 04:43:41;;;;;;;1.27;1.20;;;;;;;;;;6168727;28;20382;-80
2023/03/01 04:46:46;;;;;;;1.17;0.87;;;;;;;;;;6186114;28;20298;-79
2023/03/01 04:49:52;;;;;;;1.47;1.07;;;;;;;;;;6185818;28;20295;-78
2023/03/01 04:52:59;;;;;;;1.70;0.97;;;;;;;;;;6168545;28;20313;-78
2023/03/01 04:56:06;;;;;;;0.80;0.80;;;;;;;;;;6169139;28;20440;-79
2023/03/01 04:59:13;;;;;;;1.00;1.00;;;;;;;;;;6188854;28;20298;-79
2023/03/01 05:02:18;;;;;;;1.37;0.87;;;;;;;;;;6186995;28;20317;-79
2023/03/01 05:05:26;;;;;;;1.10;1.00;;;;;;;;;;6185414;28;20293;-79
2023/03/01 05:08:34;;;;;;;1.93;0.90;;;;;;;;;;6185513;28;20301;-79
2023/03/01 05:11:38;;;;;;;1.10;1.00;;;;;;;;;;6168636;28;20293;-79
2023/03/01 05:14:44;;;;;;;2.17;1.00;;;;;;;;;;6185060;28;20578;-79
2023/03/01 05:17:49;;;;;;;1.00;1.00;;;;;;;;;;6185331;28;20295;-79
2023/03/01 05:20:58;;;;;;;1.13;0.80;;;;;;;;;;6185612;28;20305;-79
2023/03/01 05:24:03;;;;;;;2.23;0.83;;;;;;;;;;6167831;28;20609;-79
2023/03/01 05:27:08;;;;;;;1.60;1.00;;;;;;;;;;6184215;28;20579;-78
2023/03/01 05:30:14;;;;;;;2.00;1.10;;;;;;;;;;6184976;28;20306;-79
2023/03/01 05:33:21;;;;;;;0.97;0.90;;;;;;;;;;6167587;28;20385;-79
2023/03/01 05:36:28;;;;;;;0.80;0.80;;;;;;;;;;6168887;28;20295;-78
2023/03/01 05:39:34;;;;;;;1.30;1.00;;;;;;;;;;6184783;28;20617;-79
2023/03/01 05:42:39;;;;;;;1.63;0.87;;;;;;;;;;6183091;28;20303;-79
2023/03/01 05:45:44;;;;;;;0.80;0.80;;;;;;;;;;6185262;28;20293;-79
2023/03/01 05:48:50;;;;;;;0.80;0.80;;;;;;;;;;6184983;28;20556;-80
2023/03/01 05:51:56;;;;;;;1.27;0.80;;;;;;;;;;6186101;28;20294;-80
2023/03/01 05:55:01;;;;;;;0.80;0.80;;;;;;;;;;6184431;28;20321;-79
2023/03/01 05:58:08;;;;;;;1.17;1.00;;;;;;;;;;6184509;28;20307;-79
2023/03/01 06:01:14;;;;;;;5.93;1.10;;;;;;;;;;6185471;28;20321;-79
2023/03/01 06:04:22;;;;;;;0.97;0.97;;;;;;;;;;6183471;28;20334;-79
2023/03/01 06:07:28;;;;;;;1.07;0.80;;;;;;;;;;6166866;28;20278;-79
2023/03/01 06:10:33;;;;;;;2.10;0.90;;;;;;;;;;6184689;28;20363;-79
2023/03/01 06:13:39;;;;;;;0.87;0.87;;;;;;;;;;6184056;28;20293;-78
2023/03/01 06:16:44;;;;;;;1.57;0.90;;;;;;;;;;6185543;28;20298;-79
2023/03/01 06:19:49;;;;;;;0.80;0.73;;;;;;;;;;6185140;28;20403;-80
2023/03/01 06:23:00;;;;;;;1.00;0.87;;;;;;;;;;6167193;28;20309;-78
2023/03/01 06:26:08;;;;;;;0.80;0.80;;;;;;;;;;6184953;28;20300;-79
2023/03/01 06:29:14;;;;;;;4.07;0.80;;;;;;;;;;6184477;28;20304;-78
2023/03/01 06:32:22;;;;;;;3.30;0.90;;;;;;;;;;6184816;28;20297;-78
2023/03/01 06:35:30;;;;;;;1.50;0.80;;;;;;;;;;6184211;28;20294;-78
2023/03/01 06:38:37;;;;;;;0.90;0.90;;;;;;;;;;6184238;28;20295;-80
2023/03/01 06:41:42;;;;;;;0.83;0.83;;;;;;;;;;6184172;28;20302;-78
2023/03/01 06:44:47;;;;;;;1.13;1.13;;;;;;;;;;6183972;28;20325;-78
2023/03/01 06:47:52;;;;;;;0.70;0.70;;;;;;;;;;6183911;28;20297;-79
2023/03/01 06:51:00;;;;;;;1.57;0.90;;;;;;;;;;6184882;28;20581;-79
2023/03/01 06:54:07;;;;;;;0.80;0.80;;;;;;;;;;6184080;28;20304;-79
2023/03/01 06:57:12;;;;;;;0.80;0.80;;;;;;;;;;6188823;28;20584;-79
2023/03/01 07:00:19;;;;;;;1.13;1.03;;;;;;;;;;6188415;28;20358;-79
2023/03/01 07:03:24;;;;;;;0.90;0.90;;;;;;;;;;6188094;28;20312;-78
2023/03/01 07:06:29;;;;;;;1.00;0.80;;;;;;;;;;6188701;28;20594;-79
2023/03/01 07:09:36;;;;;;;0.90;0.90;;;;;;;;;;6188255;28;20298;-81
2023/03/01 07:12:44;;;;;;;1.37;0.80;;;;;;;;;;6162372;28;20294;-80
2023/03/01 07:15:49;;;;;;;1.87;1.03;;;;;;;;;;6179589;28;20301;-79
2023/03/01 07:18:55;;;;;;;1.80;0.80;;;;;;;;;;6164527;29;20375;-79
2023/03/01 07:22:00;;;;;;;0.80;0.80;;;;;;;;;;6164624;29;20321;-78
2023/03/01 07:25:07;;;;;;;1.10;0.80;;;;;;;;;;6163498;29;20303;-78
2023/03/01 07:28:12;;;;;;;1.60;1.00;;;;;;;;;;6164152;29;20299;-77
2023/03/01 07:31:18;;;;;;;0.80;0.80;;;;;;;;;;6164346;29;20293;-78
2023/03/01 07:34:23;;;;;;;1.20;0.80;;;;;;;;;;6162810;28;20294;-79
2023/03/01 07:37:28;;;;;;;2.23;0.93;;;;;;;;;;6164100;29;20270;-79
2023/03/01 07:40:35;;;;;;;0.80;0.80;;;;;;;;;;6163429;28;20302;-77
2023/03/01 07:43:40;;;;;;;0.90;0.90;;;;;;;;;;6162991;29;20295;-77
2023/03/01 07:46:45;;;;;;;0.90;0.90;;;;;;;;;;6163643;28;20290;-79
2023/03/01 07:49:50;;;;;;;0.80;0.80;;;;;;;;;;6163170;29;20296;-77
2023/03/01 07:52:56;;;;;;;1.50;0.93;;;;;;;;;;6177478;28;20306;-78
2023/03/01 07:56:08;;;;;;;0.90;0.90;;;;;;;;;;6163907;29;20300;-78
2023/03/01 07:59:14;;;;;;;1.90;1.13;;;;;;;;;;6162891;28;20306;-79
2023/03/01 08:02:19;;;;;;;1.60;1.17;;;;;;;;;;6163242;29;20308;-78
2023/03/01 08:05:24;;;;;;;0.80;0.80;;;;;;;;;;6145612;28;20324;-77
2023/03/01 08:08:29;;;;;;;2.20;0.80;;;;;;;;;;6163451;28;20285;-77
2023/03/01 08:11:36;;;;;;;1.03;0.80;;;;;;;;;;6200391;28;20290;-79
2023/03/01 08:14:41;;;;;;;0.90;0.90;;;;;;;;;;6201768;28;20303;-77
2023/03/01 08:17:46;;;;;;;0.80;0.80;;;;;;;;;;6169691;28;20294;-77
2023/03/01 08:20:51;;;;;;;1.17;0.80;;;;;;;;;;6187130;28;20427;-78
2023/03/01 08:23:56;;;;;;;0.77;0.77;;;;;;;;;;6186266;28;20298;-76
2023/03/01 08:27:03;;;;;;;0.80;0.80;;;;;;;;;;6187114;28;20295;-77
2023/03/01 08:30:09;;;;;;;0.70;0.70;;;;;;;;;;6186216;28;20325;-75
2023/03/01 08:33:15;;;;;;;3.50;0.90;;;;;;;;;;6186477;28;20309;-78
2023/03/01 08:36:23;;;;;;;2.90;1.10;;;;;;;;;;6186497;28;20295;-77
2023/03/01 08:39:28;;;;;;;1.57;0.80;;;;;;;;;;6186237;28;20305;-77
2023/03/01 08:42:35;;;;;;;3.10;0.90;;;;;;;;;;6185687;28;20300;-77
2023/03/01 08:45:40;;;;;;;1.90;0.93;;;;;;;;;;6185324;28;20477;-76
2023/03/01 08:48:45;;;;;;;2.10;0.97;;;;;;;;;;6186151;28;20300;-77
2023/03/01 08:51:51;;;;;;;0.97;0.97;;;;;;;;;;6186288;28;20309;-77
2023/03/01 08:54:56;;;;;;;0.80;0.80;;;;;;;;;;6168545;28;20297;-77
2023/03/01 08:58:02;;;;;;;1.90;0.90;;;;;;;;;;6184979;28;20301;-78
2023/03/01 09:01:12;;;;;;;1.70;1.00;;;;;;;;;;6186211;28;20542;-77
2023/03/01 09:04:17;;;;;;;2.47;1.37;;;;;;;;;;6186214;28;20306;-79
2023/03/01 09:07:28;;;;;;;1.17;0.90;;;;;;;;;;6190734;28;20291;-77
2023/03/01 09:10:33;;;;;;;1.37;0.90;;;;;;;;;;6166386;28;20349;-78
2023/03/01 09:13:39;;;;;;;1.13;0.90;;;;;;;;;;6185528;28;20291;-78
2023/03/01 09:16:48;;;;;;;2.00;0.93;;;;;;;;;;6152797;28;20302;-78
2023/03/01 09:19:53;;;;;;;1.10;1.00;;;;;;;;;;6184950;28;20462;-78
2023/03/01 09:22:59;;;;;;;2.00;1.00;;;;;;;;;;6184913;28;20294;-78
2023/03/01 09:26:05;;;;;;;1.23;0.90;;;;;;;;;;6185549;28;20402;-78
2023/03/01 09:29:12;;;;;;;2.90;1.13;;;;;;;;;;6185369;28;20597;-78
2023/03/01 09:32:18;;;;;;;4.23;0.90;;;;;;;;;;6185716;28;20300;-77
2023/03/01 09:35:23;;;;;;;6.80;1.17;;;;;;;;;;6184738;28;20312;-78
2023/03/01 09:38:28;;;;;;;4.73;1.30;;;;;;;;;;6168074;28;20285;-78
2023/03/01 09:41:47;;;;;;;1.43;1.00;;;;;;;;;;6185502;28;20342;-78
2023/03/01 09:44:58;;;;;;;1.50;1.20;;;;;;;;;;6184581;28;20301;-77
2023/03/01 09:48:06;;;;;;;2.33;1.20;;;;;;;;;;6184765;28;20285;-78
2023/03/01 09:51:18;;;;;;;2.37;1.30;;;;;;;;;;6183907;28;20316;-78
2023/03/01 09:54:23;;;;;;;1.43;1.20;;;;;;;;;;6184807;28;20296;-79
2023/03/01 09:57:35;;;;;;;1.20;1.10;;;;;;;;;;6185380;28;20304;-77
2023/03/01 10:00:44;;;;;;;2.83;1.00;;;;;;;;;;6184540;28;20305;-78
2023/03/01 10:04:06;;;;;;;1.80;0.97;;;;;;;;;;6184854;28;20305;-79
2023/03/01 10:07:25;;;;;;;1.20;1.10;;;;;;;;;;6185537;28;20309;-78
2023/03/01 10:10:34;;;;;;;0.90;0.90;;;;;;;;;;6183927;28;20293;-78
2023/03/01 10:13:48;;;;;;;6.13;1.13;;;;;;;;;;6184404;28;20294;-79
2023/03/01 10:17:00;;;;;;;2.30;1.20;;;;;;;;;;6185839;28;20298;-78
2023/03/01 10:20:27;;;;;;;1.20;1.10;;;;;;;;;;6184114;28;20298;-78
2023/03/01 10:23:33;;;;;;;2.10;0.90;;;;;;;;;;6162818;28;20291;-78
2023/03/01 10:26:48;;;;;;;1.37;0.80;;;;;;;;;;6184780;28;20295;-77
2023/03/01 10:29:59;;;;;;;1.83;1.00;;;;;;;;;;6184555;28;20299;-78
2023/03/01 10:33:10;;;;;;;0.93;0.90;;;;;;;;;;6189307;28;20292;-78
2023/03/01 10:36:15;;;;;;;1.00;1.00;;;;;;;;;;6189322;28;20464;-78
2023/03/01 10:39:22;;;;;;;5.27;1.27;;;;;;;;;;6188787;28;20297;-79
2023/03/01 10:42:32;;;;;;;0.70;0.70;;;;;;;;;;6189613;28;20308;-78
2023/03/01 10:45:38;;;;;;;0.97;0.90;;;;;;;;;;6188432;28;20305;-78
2023/03/01 10:48:45;;;;;;;2.43;0.90;;;;;;;;;;6188832;28;20306;-78
2023/03/01 10:51:54;;;;;;;0.80;0.80;;;;;;;;;;6188839;28;20495;-78
2023/03/01 10:55:02;;;;;;;0.77;0.77;;;;;;;;;;6188623;28;20305;-79
2023/03/01 10:58:18;;;;;;;2.60;0.97;;;;;;;;;;6188473;28;20318;-77
2023/03/01 11:01:28;;;;;;;4.90;1.20;;;;;;;;;;6187951;28;20474;-77
2023/03/01 11:04:37;;;;;;;1.00;1.00;;;;;;;;;;6189004;28;20298;-79
2023/03/01 11:07:49;;;;;;;5.10;0.90;;;;;;;;;;6188172;28;20319;-79
2023/03/01 11:11:06;;;;;;;1.67;0.90;;;;;;;;;;6189069;28;20442;-78
2023/03/01 11:14:18;;;;;;;2.93;1.30;;;;;;;;;;6188287;28;20602;-79
2023/03/01 11:17:33;;;;;;;1.00;1.00;;;;;;;;;;6188054;28;20299;-79
2023/03/01 11:20:59;;;;;;;1.03;1.03;;;;;;;;;;6188416;28;20297;-78
2023/03/01 11:24:07;;;;;;;1.13;0.87;;;;;;;;;;6188077;28;20296;-80
2023/03/01 11:27:20;;;;;;;1.13;1.13;;;;;;;;;;6188331;28;20597;-79
2023/03/01 11:30:29;;;;;;;3.53;1.20;;;;;;;;;;6188176;28;20299;-79
2023/03/01 11:33:39;;;;;;;1.93;1.03;;;;;;;;;;6187657;28;20500;-78
2023/03/01 11:36:49;;;;;;;5.40;1.00;;;;;;;;;;6187436;28;20303;-77
2023/03/01 11:40:00;;;;;;;0.90;0.90;;;;;;;;;;6186526;28;20308;-78
2023/03/01 11:43:13;;;;;;;4.23;1.00;;;;;;;;;;6187010;28;20296;-80
2023/03/01 11:46:39;;;;;;;2.23;0.90;;;;;;;;;;6187896;28;20577;-76
2023/03/01 11:50:09;;;;;;;1.10;0.83;;;;;;;;;;6186304;28;20295;-77
2023/03/01 11:53:34;;;;;;;1.00;0.90;;;;;;;;;;6187021;28;20307;-77
2023/03/01 11:56:43;;;;;;;1.10;1.10;;;;;;;;;;6187532;28;20300;-77
2023/03/01 12:00:08;;;;;;;5.13;1.07;;;;;;;;;;6187079;28;20299;-78
2023/03/01 12:03:31;;;;;;;0.67;0.67;;;;;;;;;;6187589;28;20312;-79
2023/03/01 12:06:50;;;;;;;0.70;0.70;;;;;;;;;;6188959;28;20312;-78
2023/03/01 12:10:18;;;;;;;0.80;0.80;;;;;;;;;;6186665;28;20311;-79
2023/03/01 12:13:59;;;;;;;0.80;0.80;;;;;;;;;;6183771;28;20291;-75
2023/03/01 12:17:21;;;;;;;1.30;1.20;;;;;;;;;;6167370;28;20292;-80
2023/03/01 12:20:31;;;;;;;0.90;0.90;;;;;;;;;;6186247;28;20325;-76
2023/03/01 12:24:05;;;;;;;1.10;1.00;;;;;;;;;;6186208;28;20295;-78
2023/03/01 12:27:27;;;;;;;0.83;0.80;;;;;;;;;;6186483;28;20292;-79
2023/03/01 12:30:40;;;;;;;2.43;1.00;;;;;;;;;;6185989;28;20308;-78
2023/03/01 12:33:51;;;;;;;0.73;0.73;;;;;;;;;;6186025;28;20296;-77
2023/03/01 12:37:18;;;;;;;2.37;0.93;;;;;;;;;;6185958;28;20387;-78
2023/03/01 12:40:48;;;;;;;0.90;0.87;;;;;;;;;;6168354;28;20297;-77
2023/03/01 12:44:02;;;;;;;1.40;0.83;;;;;;;;;;6167754;28;20297;-75
2023/03/01 12:47:23;;;;;;;0.90;0.90;;;;;;;;;;6186025;28;20304;-76
2023/03/01 12:50:34;;;;;;;2.87;0.80;;;;;;;;;;6168780;28;20310;-75
2023/03/01 12:53:42;;;;;;;0.70;0.70;;;;;;;;;;6184590;28;20305;-76
2023/03/01 12:56:52;;;;;;;2.80;0.80;;;;;;;;;;6186169;28;20301;-77
2023/03/01 13:00:09;;;;;;;0.80;0.80;;;;;;;;;;6185345;28;20304;-75
2023/03/01 13:03:24;;;;;;;1.23;1.03;;;;;;;;;;6167730;28;20309;-74
2023/03/01 13:06:37;;;;;;;0.93;0.80;;;;;;;;;;6185940;28;20297;-76
2023/03/01 13:09:53;;;;;;;3.60;1.10;;;;;;;;;;6185409;28;20325;-75
2023/03/01 13:13:22;;;;;;;0.70;0.70;;;;;;;;;;6186036;28;20316;-79
2023/03/01 13:16:45;;;;;;;0.70;0.70;;;;;;;;;;6181405;28;20561;-77
2023/03/01 13:19:58;;;;;;;2.93;0.70;;;;;;;;;;6184129;28;20304;-78
2023/03/01 13:23:07;;;;;;;0.80;0.80;;;;;;;;;;6185498;28;20304;-77
2023/03/01 13:26:15;;;;;;;0.83;0.83;;;;;;;;;;6185478;28;20301;-78
2023/03/01 13:29:28;;;;;;;0.67;0.67;;;;;;;;;;6184832;28;20593;-78
2023/03/01 13:32:38;;;;;;;3.10;0.70;;;;;;;;;;6185474;28;20301;-78
2023/03/01 13:35:50;;;;;;;1.20;1.20;;;;;;;;;;6182828;28;20304;-79
2023/03/01 13:38:58;;;;;;;1.27;1.10;;;;;;;;;;6185388;28;20304;-78
2023/03/01 13:42:03;;;;;;;1.50;0.97;;;;;;;;;;6188135;28;20313;-78
2023/03/01 13:45:20;;;;;;;2.00;0.97;;;;;;;;;;6185279;28;20305;-78
2023/03/01 13:48:28;;;;;;;0.80;0.80;;;;;;;;;;6184402;28;20380;-78
2023/03/01 13:51:38;;;;;;;3.53;0.77;;;;;;;;;;6185255;28;20321;-77
2023/03/01 13:54:44;;;;;;;3.40;0.83;;;;;;;;;;6185709;28;20297;-79
2023/03/01 13:57:53;;;;;;;4.40;1.10;;;;;;;;;;6185819;28;20309;-77
2023/03/01 14:01:00;;;;;;;2.20;1.00;;;;;;;;;;6169279;28;20289;-78
2023/03/01 14:04:21;;;;;;;3.67;0.80;;;;;;;;;;6186570;28;20314;-78
2023/03/01 14:07:29;;;;;;;0.87;0.87;;;;;;;;;;6189870;28;20281;-78
2023/03/01 14:10:41;;;;;;;4.53;0.90;;;;;;;;;;6188494;28;20286;-78
2023/03/01 14:14:04;;;;;;;0.60;0.60;;;;;;;;;;6189275;28;20293;-78
2023/03/01 14:17:36;;;;;;;0.70;0.70;;;;;;;;;;6189716;28;20293;-78
2023/03/01 14:20:45;;;;;;;2.57;0.80;;;;;;;;;;6188635;28;20340;-78
2023/03/01 14:23:50;;;;;;;1.90;0.80;;;;;;;;;;6189055;28;20314;-78
2023/03/01 14:26:55;;;;;;;0.57;0.57;;;;;;;;;;6189416;28;20293;-79
2023/03/01 14:30:02;;;;;;;8.63;1.00;;;;;;;;;;6171879;28;20305;-78
2023/03/01 14:33:19;;;;;;;1.55;0.80;;;;;;;;;;6189365;28;20586;-78
2023/03/01 14:36:30;;;;;;;2.40;0.90;;;;;;;;;;6189170;28;20446;-78
2023/03/01 14:39:35;;;;;;;0.70;0.70;;;;;;;;;;6188855;28;20479;-78
2023/03/01 14:42:45;;;;;;;0.90;0.90;;;;;;;;;;6171247;28;20317;-78
2023/03/01 14:45:53;;;;;;;0.80;0.80;;;;;;;;;;6188731;28;20298;-78
2023/03/01 14:49:02;;;;;;;4.32;0.90;;;;;;;;;;6188607;28;20301;-78
2023/03/01 14:52:20;;;;;;;0.75;0.75;;;;;;;;;;6172078;28;20589;-78
2023/03/01 14:55:28;;;;;;;0.85;0.75;;;;;;;;;;6187570;28;20302;-78
2023/03/01 14:58:35;;;;;;;6.15;1.00;;;;;;;;;;6188381;28;20482;-78
2023/03/01 15:01:41;;;;;;;1.17;0.80;;;;;;;;;;6188768;28;20301;-78
2023/03/01 15:04:48;;;;;;;4.13;1.00;;;;;;;;;;6188281;28;20277;-78
2023/03/01 15:07:55;;;;;;;1.85;0.90;;;;;;;;;;6187867;28;20298;-77
2023/03/01 15:11:03;;;;;;;1.00;0.70;;;;;;;;;;6171924;28;20289;-77
2023/03/01 15:14:27;;;;;;;3.65;1.00;;;;;;;;;;6188095;28;20364;-78
2023/03/01 15:17:34;;;;;;;1.05;0.88;;;;;;;;;;6163606;28;20314;-78
2023/03/01 15:20:39;;;;;;;3.22;1.90;;;;;;;;;;6178707;28;20307;-78
2023/03/01 15:23:51;;;;;;;2.50;2.30;;;;;;;;;;6164221;28;20294;-77
2023/03/01 15:27:01;;;;;;;3.30;1.60;;;;;;;;;;6164642;29;20302;-78
2023/03/01 15:30:08;;;;;;;3.78;1.50;;;;;;;;;;6163637;29;20294;-78
2023/03/01 15:33:31;;;;;;;7.10;1.20;;;;;;;;;;6163868;29;20302;-78
2023/03/01 15:36:42;;;;;;;2.00;1.00;;;;;;;;;;6164183;29;20298;-77
2023/03/01 15:39:55;;;;;;;1.50;1.00;;;;;;;;;;6164151;29;20323;-78
2023/03/01 15:43:02;;;;;;;1.63;1.23;;;;;;;;;;6163726;28;20583;-75
2023/03/01 15:46:12;;;;;;;9.18;1.77;;;;;;;;;;6164785;29;20294;-77
2023/03/01 15:49:36;;;;;;;5.43;1.20;;;;;;;;;;6163665;28;20322;-78
2023/03/01 15:52:58;;;;;;;3.00;1.00;;;;;;;;;;6161834;28;20606;-79
2023/03/01 15:56:07;;;;;;;0.80;0.80;;;;;;;;;;6163653;29;20294;-75
2023/03/01 15:59:14;;;;;;;6.63;1.10;;;;;;;;;;6163046;28;20449;-75
2023/03/01 16:02:20;;;;;;;4.75;1.08;;;;;;;;;;6163343;29;20306;-76
2023/03/01 16:05:28;;;;;;;2.07;0.80;;;;;;;;;;6163131;29;20306;-76
2023/03/01 16:08:33;;;;;;;2.73;1.07;;;;;;;;;;6162953;28;20302;-76
2023/03/01 16:11:42;;;;;;;0.90;0.90;;;;;;;;;;6186452;28;20293;-77
2023/03/01 16:14:48;;;;;;;3.43;0.93;;;;;;;;;;6186695;28;20309;-77
2023/03/01 16:17:54;;;;;;;11.53;0.90;;;;;;;;;;6186896;28;20293;-77
2023/03/01 16:20:59;;;;;;;4.20;1.20;;;;;;;;;;6187800;28;20554;-78
2023/03/01 16:24:05;;;;;;;1.93;0.83;;;;;;;;;;6186747;28;20313;-76
2023/03/01 16:27:15;;;;;;;4.28;0.93;;;;;;;;;;6186969;28;20320;-77
2023/03/01 16:30:22;;;;;;;0.83;0.83;;;;;;;;;;6186874;28;20302;-77
2023/03/01 16:33:28;;;;;;;2.53;0.90;;;;;;;;;;6186342;28;20316;-77
2023/03/01 16:36:38;;;;;;;1.13;0.93;;;;;;;;;;6186837;28;20306;-76
2023/03/01 16:39:44;;;;;;;2.20;0.90;;;;;;;;;;6186360;28;20297;-76
2023/03/01 16:42:51;;;;;;;3.50;0.97;;;;;;;;;;6186074;28;20351;-80
2023/03/01 16:45:56;;;;;;;0.87;0.83;;;;;;;;;;6186247;28;20293;-77
2023/03/01 16:49:01;;;;;;;4.53;0.77;;;;;;;;;;6186143;28;20306;-77
2023/03/01 16:52:06;;;;;;;1.60;0.90;;;;;;;;;;6186731;28;20370;-76
2023/03/01 16:55:12;;;;;;;6.60;1.17;;;;;;;;;;6186558;28;20301;-77
2023/03/01 16:58:19;;;;;;;4.10;1.60;;;;;;;;;;6186760;28;20501;-76
2023/03/01 17:01:25;;;;;;;2.77;1.30;;;;;;;;;;6168428;28;20280;-78
2023/03/01 17:04:31;;;;;;;0.90;0.90;;;;;;;;;;6185455;28;20463;-78
2023/03/01 17:07:37;;;;;;;3.77;1.33;;;;;;;;;;6185808;28;20578;-79
2023/03/01 17:10:42;;;;;;;13.70;1.97;;;;;;;;;;6185461;28;20281;-79
2023/03/01 17:13:49;;;;;;;9.47;4.17;;;;;;;;;;6185781;28;20296;-78
2023/03/01 17:16:54;;;;;;;4.80;4.00;;;;;;;;;;6186000;28;20292;-79
2023/03/01 17:19:59;;;;;;;3.20;2.63;;;;;;;;;;6188727;28;20356;-77
2023/03/01 17:23:09;;;;;;;1.50;1.40;;;;;;;;;;6184715;28;20301;-77
2023/03/01 17:26:15;;;;;;;13.67;1.63;;;;;;;;;;6185913;28;20296;-78
2023/03/01 17:29:22;;;;;;;1.70;1.70;;;;;;;;;;6167786;28;20305;-78
2023/03/01 17:32:27;;;;;;;3.57;2.40;;;;;;;;;;6185409;28;20304;-77
2023/03/01 17:35:36;;;;;;;2.30;2.10;;;;;;;;;;6185036;28;20381;-77
2023/03/01 17:38:42;;;;;;;3.57;1.20;;;;;;;;;;6184758;28;20365;-77
2023/03/01 17:41:47;;;;;;;1.37;0.80;;;;;;;;;;6185963;28;20299;-78
2023/03/01 17:44:54;;;;;;;2.47;1.00;;;;;;;;;;6185546;28;20301;-78
2023/03/01 17:48:00;;;;;;;3.47;1.20;;;;;;;;;;6185510;28;20613;-78
2023/03/01 17:51:11;;;;;;;3.07;1.10;;;;;;;;;;6170618;28;20305;-77
2023/03/01 17:54:19;;;;;;;0.83;0.83;;;;;;;;;;6153514;28;20594;-77
2023/03/01 17:57:24;;;;;;;8.33;1.10;;;;;;;;;;6184959;28;20317;-77
2023/03/01 18:00:31;;;;;;;6.63;1.13;;;;;;;;;;6167939;28;20304;-78
2023/03/01 18:03:36;;;;;;;3.00;0.90;;;;;;;;;;6184115;28;20297;-78
2023/03/01 18:06:42;;;;;;;7.63;1.20;;;;;;;;;;6185621;28;20256;-77
2023/03/01 18:09:47;;;;;;;1.27;0.90;;;;;;;;;;6185117;28;20355;-77
2023/03/01 18:12:53;;;;;;;4.50;1.67;;;;;;;;;;6185262;28;20308;-77
2023/03/01 18:16:00;;;;;;;2.13;1.03;;;;;;;;;;6185433;28;20297;-77
2023/03/01 18:19:05;;;;;;;4.83;1.13;;;;;;;;;;6188485;28;20289;-78
2023/03/01 18:22:13;;;;;;;3.87;0.93;;;;;;;;;;6185355;28;20308;-79
2023/03/01 18:25:19;;;;;;;2.27;1.03;;;;;;;;;;6185036;28;20312;-78
2023/03/01 18:28:24;;;;;;;2.77;0.80;;;;;;;;;;6167140;28;20313;-78
2023/03/01 18:31:32;;;;;;;0.80;0.80;;;;;;;;;;6185680;28;20344;-78
2023/03/01 18:34:37;;;;;;;2.10;1.00;;;;;;;;;;6185008;28;20309;-78
2023/03/01 18:37:44;;;;;;;1.80;1.43;;;;;;;;;;6185238;28;20293;-79
2023/03/01 18:40:53;;;;;;;3.17;1.13;;;;;;;;;;6183419;28;20304;-77
2023/03/01 18:43:58;;;;;;;2.97;1.33;;;;;;;;;;6185036;28;20331;-78
2023/03/01 18:47:05;;;;;;;1.07;1.00;;;;;;;;;;6185548;28;20309;-78
2023/03/01 18:50:12;;;;;;;1.50;0.97;;;;;;;;;;6184788;28;20478;-79
2023/03/01 18:53:18;;;;;;;4.63;1.00;;;;;;;;;;6189261;28;20318;-80